createdAt,value
2022-10-12T00:00:23.849Z,97.08
2022-10-12T00:02:25.141Z,97.1
2022-10-12T00:04:26.806Z,97.15
2022-10-12T00:06:28.251Z,97.12
2022-10-12T00:08:29.373Z,97.03
2022-10-12T00:10:30.395Z,97.1
2022-10-12T00:12:31.782Z,97.31
2022-10-12T00:14:32.766Z,97.34
2022-10-12T00:16:34.569Z,97.54
2022-10-12T00:18:35.601Z,97.55
2022-10-12T00:22:38.805Z,97.24
2022-10-12T00:24:42.091Z,97.25
2022-10-12T00:26:41.687Z,97.32
2022-10-12T00:28:43.352Z,97.3
2022-10-12T00:30:44.742Z,97.56
2022-10-12T00:32:45.731Z,97.67
2022-10-12T00:34:47.361Z,97.69
2022-10-12T00:36:49.098Z,97.72
2022-10-12T00:38:51.037Z,97.58
2022-10-12T00:40:52.658Z,97.25
2022-10-12T00:42:54.657Z,97.45
2022-10-12T00:44:56.173Z,97.69
2022-10-12T00:46:57.801Z,97.71
2022-10-12T00:48:59.693Z,97.73
2022-10-12T00:51:01.100Z,97.9
2022-10-12T00:53:02.902Z,97.83
2022-10-12T00:55:04.036Z,97.88
2022-10-12T00:57:05.145Z,97.92
2022-10-12T00:59:06.543Z,97.98
2022-10-12T01:01:07.690Z,97.97
2022-10-12T01:05:10.074Z,98.05
2022-10-12T01:07:11.438Z,98.04
2022-10-12T01:09:13.025Z,98.03
2022-10-12T01:11:14.204Z,98.01
2022-10-12T01:13:15.496Z,98.18
2022-10-12T01:15:16.851Z,98.18
2022-10-12T01:17:17.841Z,98.2
2022-10-12T01:19:18.826Z,98.07
2022-10-12T01:21:20.684Z,97.95
2022-10-12T01:23:22.355Z,97.98
2022-10-12T01:25:24.222Z,98.02
2022-10-12T01:27:25.809Z,98.03
2022-10-12T01:29:27.467Z,98
2022-10-12T01:31:32.328Z,97.97
2022-10-12T01:33:30.211Z,98.16
2022-10-12T01:37:33.302Z,97.93
2022-10-12T01:39:35.034Z,97.9
2022-10-12T01:43:37.140Z,97.98
2022-10-12T01:45:38.289Z,98.03
2022-10-12T01:47:40.410Z,98.05
2022-10-12T01:49:41.717Z,97.96
2022-10-12T01:53:44.438Z,97.92
2022-10-12T01:55:46.128Z,97.99
2022-10-12T01:57:47.760Z,98.03
2022-10-12T01:59:48.810Z,98.14
2022-10-12T02:01:50.768Z,98.21
2022-10-12T02:03:52.540Z,98.1
2022-10-12T02:05:53.529Z,97.98
2022-10-12T02:07:55.349Z,98.01
2022-10-12T02:09:56.828Z,98.05
2022-10-12T02:11:58.237Z,98.09
2022-10-12T02:13:59.493Z,98.08
2022-10-12T02:16:00.657Z,98.06
2022-10-12T02:18:02.102Z,98.04
2022-10-12T02:20:03.394Z,98.02
2022-10-12T02:22:04.790Z,98.07
2022-10-12T02:24:05.843Z,98.11
2022-10-12T02:26:07.316Z,98.12
2022-10-12T02:28:09.132Z,98.16
2022-10-12T02:30:10.608Z,98.17
2022-10-12T02:32:11.860Z,98.18
2022-10-12T02:36:14.817Z,98.2
2022-10-12T02:38:16.664Z,98.22
2022-10-12T02:40:18.491Z,98.24
2022-10-12T02:42:19.782Z,98.16
2022-10-12T02:46:22.754Z,98.25
2022-10-12T02:48:24.660Z,98.28
2022-10-12T02:50:25.723Z,98.29
2022-10-12T02:52:27.400Z,98.31
2022-10-12T02:54:28.451Z,98.32
2022-10-12T02:56:30.263Z,98.37
2022-10-12T02:58:31.568Z,98.38
2022-10-12T03:00:32.870Z,98.44
2022-10-12T03:02:34.204Z,98.42
2022-10-12T03:04:35.619Z,98.42
2022-10-12T03:06:37.209Z,98.39
2022-10-12T03:08:39.123Z,98.4
2022-10-12T03:10:40.459Z,98.41
2022-10-12T03:12:44.420Z,98.4
2022-10-12T03:14:44.205Z,98.41
2022-10-12T03:16:45.807Z,98.4
2022-10-12T03:18:46.836Z,98.4
2022-10-12T03:20:48.129Z,98.4
2022-10-12T03:23:41.675Z,98.42
2022-10-12T03:25:42.926Z,98.41
2022-10-12T03:27:44.880Z,98.42
2022-10-12T03:29:46.832Z,98.43
2022-10-12T03:31:48.795Z,98.41
2022-10-12T03:33:50.245Z,98.4
2022-10-12T03:35:52.149Z,98.43
2022-10-12T03:39:55.917Z,98.4
2022-10-12T03:41:57.238Z,98.36
2022-10-12T03:43:59.144Z,98.44
2022-10-12T03:46:01.102Z,98.44
2022-10-12T03:50:03.835Z,98.5
2022-10-12T03:52:04.889Z,98.5
2022-10-12T03:54:06.675Z,98.51
2022-10-12T03:56:07.968Z,98.55
2022-10-12T03:58:09.413Z,98.55
2022-10-12T04:00:10.445Z,98.56
2022-10-12T04:02:15.923Z,98.62
2022-10-12T04:04:13.182Z,98.63
2022-10-12T04:06:14.970Z,98.66
2022-10-12T04:08:16.887Z,98.66
2022-10-12T04:10:18.810Z,98.67
2022-10-12T04:12:20.272Z,98.67
2022-10-12T04:14:21.583Z,98.71
2022-10-12T04:16:23.350Z,98.75
2022-10-12T04:18:23.915Z,98.73
2022-10-12T04:20:25.092Z,98.71
2022-10-12T04:22:26.141Z,98.73
2022-10-12T04:24:27.919Z,98.74
2022-10-12T04:28:31.127Z,98.73
2022-10-12T04:30:32.623Z,98.75
2022-10-12T04:32:34.459Z,98.74
2022-10-12T04:34:36.016Z,98.71
2022-10-12T04:36:37.031Z,98.7
2022-10-12T04:38:38.677Z,98.71
2022-10-12T04:40:40.194Z,98.71
2022-10-12T04:42:41.538Z,98.75
2022-10-12T04:44:43.016Z,98.75
2022-10-12T04:46:44.232Z,98.76
2022-10-12T04:48:46.175Z,98.72
2022-10-12T04:50:47.968Z,98.68
2022-10-12T04:52:49.927Z,98.71
2022-10-12T04:54:51.110Z,98.76
2022-10-12T04:56:52.171Z,98.75
2022-10-12T04:58:53.877Z,98.78
2022-10-12T05:00:55.530Z,98.82
2022-10-12T05:02:57.509Z,98.86
2022-10-12T05:04:58.829Z,98.85
2022-10-12T05:07:00.233Z,98.84
2022-10-12T05:11:02.938Z,98.87
2022-10-12T05:13:04.231Z,98.87
2022-10-12T05:15:05.315Z,98.88
2022-10-12T05:17:06.497Z,98.87
2022-10-12T05:19:08.021Z,98.89
2022-10-12T05:21:09.841Z,98.91
2022-10-12T05:23:11.648Z,98.89
2022-10-12T05:25:12.841Z,98.9
2022-10-12T05:27:14.439Z,98.9
2022-10-12T05:29:15.735Z,98.91
2022-10-12T05:31:17.566Z,98.91
2022-10-12T05:33:19.419Z,98.92
2022-10-12T05:35:20.562Z,98.91
2022-10-12T05:37:22.432Z,98.9
2022-10-12T05:39:24.147Z,98.91
2022-10-12T05:41:25.691Z,98.9
2022-10-12T05:43:27.230Z,98.92
2022-10-12T05:45:28.758Z,98.92
2022-10-12T05:47:30.387Z,98.94
2022-10-12T05:49:32.245Z,98.92
2022-10-12T05:51:33.380Z,98.94
2022-10-12T05:53:35.317Z,98.95
2022-10-12T05:55:36.699Z,98.96
2022-10-12T05:57:38.556Z,98.94
2022-10-12T05:59:39.505Z,98.94
2022-10-12T06:03:43.203Z,98.92
2022-10-12T06:05:44.591Z,98.93
2022-10-12T06:07:46.231Z,98.92
2022-10-12T06:09:47.802Z,98.93
2022-10-12T06:11:48.814Z,98.92
2022-10-12T06:13:50.542Z,98.93
2022-10-12T06:15:51.723Z,98.91
2022-10-12T06:17:53.661Z,98.9
2022-10-12T06:19:55.115Z,98.87
2022-10-12T06:21:56.868Z,98.86
2022-10-12T06:23:57.933Z,98.89
2022-10-12T06:25:59.508Z,98.89
2022-10-12T06:28:00.890Z,98.89
2022-10-12T06:30:02.203Z,98.86
2022-10-12T06:32:03.150Z,98.87
2022-10-12T06:34:04.567Z,98.88
2022-10-12T06:36:05.653Z,98.87
2022-10-12T06:38:07.508Z,98.83
2022-10-12T06:40:08.648Z,98.85
2022-10-12T06:42:10.041Z,98.84
2022-10-12T06:46:13.109Z,98.82
2022-10-12T06:48:18.303Z,98.81
2022-10-12T06:50:16.560Z,98.85
2022-10-12T06:52:17.555Z,98.86
2022-10-12T06:54:18.896Z,98.87
2022-10-12T06:56:20.296Z,98.88
2022-10-12T06:58:22.234Z,98.87
2022-10-12T07:00:24.028Z,98.89
2022-10-12T07:02:25.771Z,98.9
2022-10-12T07:04:27.041Z,98.91
2022-10-12T07:06:28.543Z,98.93
2022-10-12T07:08:30.047Z,98.91
2022-10-12T07:10:31.949Z,98.95
2022-10-12T07:12:33.275Z,98.91
2022-10-12T07:14:34.879Z,98.86
2022-10-12T07:16:36.114Z,98.78
2022-10-12T07:18:38.011Z,98.76
2022-10-12T07:20:39.323Z,98.78
2022-10-12T07:22:40.952Z,98.81
2022-10-12T07:24:41.937Z,98.76
2022-10-12T07:28:44.939Z,98.42
2022-10-12T07:30:46.721Z,98.35
2022-10-12T07:32:48.203Z,98.23
2022-10-12T07:34:49.165Z,97.92
2022-10-12T07:36:58.911Z,96.73
2022-10-12T07:38:51.863Z,96.52
2022-10-12T07:40:53.765Z,96.86
2022-10-12T07:43:14.558Z,96.39
2022-10-12T07:44:56.643Z,96.47
2022-10-12T07:46:58.490Z,96.04
2022-10-12T07:48:59.757Z,95.85
2022-10-12T07:51:01.531Z,94.81
2022-10-12T07:53:03.388Z,94.31
2022-10-12T07:55:04.952Z,94.38
2022-10-12T07:57:06.175Z,93.22
2022-10-12T08:01:08.665Z,93.33
2022-10-12T08:03:09.936Z,93.17
2022-10-12T08:05:11.389Z,94.25
2022-10-12T08:07:12.887Z,93.38
2022-10-12T08:11:15.582Z,91.69
2022-10-12T08:13:16.750Z,91.96
2022-10-12T08:17:19.753Z,90.12
2022-10-12T08:19:20.850Z,90.46
2022-10-12T08:21:21.804Z,90.36
2022-10-12T08:23:23.922Z,88.48
2022-10-12T08:27:26.336Z,87.21
2022-10-12T08:29:27.934Z,87.77
2022-10-12T08:31:29.349Z,87.94
2022-10-12T08:33:30.984Z,87.85
2022-10-12T08:35:32.587Z,87.54
2022-10-12T08:37:33.701Z,84.83
2022-10-12T08:39:35.214Z,86.31
2022-10-12T08:41:36.474Z,85.63
2022-10-12T08:43:37.436Z,85.32
2022-10-12T08:45:38.927Z,85.22
2022-10-12T08:47:40.285Z,85.13
2022-10-12T08:49:44.182Z,85.3
2022-10-12T08:51:43.980Z,85.48
2022-10-12T08:53:45.343Z,86.19
2022-10-12T08:55:47.139Z,82.74
2022-10-12T08:59:50.639Z,82.14
2022-10-12T09:01:51.687Z,81.6
2022-10-12T09:03:52.799Z,84.36
2022-10-12T09:05:53.708Z,82.9
2022-10-12T09:09:55.659Z,81.8
2022-10-12T09:11:57.244Z,81.26
2022-10-12T09:13:58.229Z,82.97
2022-10-12T09:15:59.926Z,81.29
2022-10-12T09:18:01.014Z,83.52
2022-10-12T09:20:02.284Z,83.08
2022-10-12T09:22:03.555Z,83.6
2022-10-12T09:24:04.957Z,82.43
2022-10-12T09:26:06.006Z,83.33
2022-10-12T09:28:07.700Z,83.47
2022-10-12T09:30:08.842Z,81.62
2022-10-12T09:32:10.353Z,83.33
2022-10-12T09:34:14.439Z,83.26
2022-10-12T09:36:12.648Z,80.4
2022-10-12T09:38:14.191Z,80.81
2022-10-12T09:40:15.628Z,81.58
2022-10-12T09:42:16.505Z,80.43
2022-10-12T09:44:17.545Z,80.43
2022-10-12T09:46:18.387Z,81.63
2022-10-12T09:48:19.261Z,80.18
2022-10-12T09:52:22.001Z,79.41
2022-10-12T09:54:23.660Z,78.55
2022-10-12T09:56:25.018Z,78.93
2022-10-12T09:58:26.810Z,79.66
2022-10-12T10:00:27.900Z,80.13
2022-10-12T10:02:29.686Z,78.53
2022-10-12T10:04:30.963Z,77.2
2022-10-12T10:06:32.057Z,77.17
2022-10-12T10:07:15.773Z,77.9
2022-10-12T10:09:17.279Z,77.42
2022-10-12T10:11:18.801Z,77.63
2022-10-12T10:13:20.799Z,76.74
2022-10-12T10:15:21.883Z,79.07
2022-10-12T10:19:24.651Z,78.13
2022-10-12T10:21:25.755Z,77.68
2022-10-12T10:23:27.346Z,77.96
2022-10-12T10:25:28.853Z,77.7
2022-10-12T10:29:31.265Z,80.07
2022-10-12T10:31:32.764Z,78.62
2022-10-12T10:33:33.917Z,78.03
2022-10-12T10:35:34.830Z,77.74
2022-10-12T10:37:35.799Z,77.36
2022-10-12T10:39:37.064Z,77.66
2022-10-12T10:41:38.229Z,80.57
2022-10-12T10:45:41.209Z,84.03
2022-10-12T10:47:41.994Z,83.76
2022-10-12T10:49:44.425Z,84.43
2022-10-12T10:51:44.363Z,86.13
2022-10-12T10:53:45.940Z,85.45
2022-10-12T10:55:47.526Z,86.52
2022-10-12T10:59:50.532Z,87.02
2022-10-12T11:01:52.425Z,86.2
2022-10-12T11:03:53.551Z,86.04
2022-10-12T11:05:54.763Z,85.46
2022-10-12T11:07:55.755Z,85.81
2022-10-12T11:09:56.988Z,85.04
2022-10-12T11:11:57.967Z,84.43
2022-10-12T11:13:59.807Z,85.13
2022-10-12T11:16:00.676Z,84.56
2022-10-12T11:18:02.329Z,84.83
2022-10-12T11:20:03.508Z,84.42
2022-10-12T11:22:05.016Z,85.71
2022-10-12T11:24:06.496Z,85.64
2022-10-12T11:28:08.654Z,80.18
2022-10-12T11:30:10.192Z,80.03
2022-10-12T11:32:10.743Z,80.21
2022-10-12T11:34:13.597Z,82.52
2022-10-12T11:36:13.651Z,79.35
2022-10-12T11:38:15.500Z,78.71
2022-10-12T11:40:16.940Z,80.53
2022-10-12T11:42:22.094Z,80.09
2022-10-12T11:44:19.828Z,81.95
2022-10-12T11:46:21.617Z,82.25
2022-10-12T11:48:26.239Z,78.02
2022-10-12T11:50:23.643Z,76.42
2022-10-12T11:52:28.684Z,75.54
2022-10-12T11:54:26.902Z,76.75
2022-10-12T11:56:28.073Z,77.83
2022-10-12T12:00:31.138Z,79.23
2022-10-12T12:02:32.442Z,77.96
2022-10-12T12:04:42.059Z,77.19
2022-10-12T12:06:35.531Z,77.52
2022-10-12T12:10:38.727Z,78.76
2022-10-12T12:12:40.307Z,76.93
2022-10-12T12:14:41.828Z,75.75
2022-10-12T12:16:42.749Z,75.68
2022-10-12T12:18:44.084Z,76.17
2022-10-12T12:20:45.781Z,75.78
2022-10-12T12:22:47.396Z,78.9
2022-10-12T12:24:48.403Z,76.12
2022-10-12T12:26:49.935Z,75.31
2022-10-12T12:28:51.492Z,76.69
2022-10-12T12:30:53.241Z,76.08
2022-10-12T12:32:54.795Z,74.45
2022-10-12T12:34:59.398Z,74.75
2022-10-12T12:36:56.709Z,72.5
2022-10-12T12:38:58.000Z,73.59
2022-10-12T12:40:59.020Z,76.4
2022-10-12T12:43:00.294Z,74.13
2022-10-12T12:45:01.175Z,73.23
2022-10-12T12:47:02.196Z,73.67
2022-10-12T12:49:03.060Z,73.89
2022-10-12T12:51:04.168Z,75.58
2022-10-12T12:53:05.471Z,76.51
2022-10-12T12:55:06.266Z,76.85
2022-10-12T12:57:07.354Z,79.05
2022-10-12T12:59:09.017Z,79.65
2022-10-12T13:01:10.056Z,80.3
2022-10-12T13:03:11.125Z,80.15
2022-10-12T13:05:12.190Z,78.69
2022-10-12T13:09:20.194Z,73.17
2022-10-12T13:11:16.697Z,74.83
2022-10-12T13:13:17.805Z,73.05
2022-10-12T13:15:18.700Z,75.55
2022-10-12T13:17:33.639Z,74.72
2022-10-12T13:19:22.267Z,76.88
2022-10-12T13:21:22.959Z,77.05
2022-10-12T13:23:24.365Z,78.43
2022-10-12T13:25:25.465Z,78.75
2022-10-12T13:27:27.172Z,80.83
2022-10-12T13:29:28.500Z,78.12
2022-10-12T13:31:30.205Z,78.61
2022-10-12T13:33:32.566Z,80.29
2022-10-12T13:35:33.200Z,79.92
2022-10-12T13:37:34.911Z,79.71
2022-10-12T13:39:38.500Z,79.84
2022-10-12T13:41:36.792Z,79.69
2022-10-12T13:43:38.069Z,80.83
2022-10-12T13:45:39.744Z,79.68
2022-10-12T13:47:41.429Z,80.98
2022-10-12T13:51:44.288Z,79.74
2022-10-12T13:53:46.007Z,78.79
2022-10-12T13:55:47.481Z,79.04
2022-10-12T13:57:49.148Z,77.62
2022-10-12T13:59:50.364Z,78.75
2022-10-12T14:01:52.071Z,78.03
2022-10-12T14:03:53.485Z,78.89
2022-10-12T14:05:56.296Z,77.97
2022-10-12T14:07:56.394Z,78.28
2022-10-12T14:09:57.893Z,77.95
2022-10-12T14:11:58.909Z,75.05
2022-10-12T14:14:00.166Z,74.34
2022-10-12T14:16:01.952Z,73.83
2022-10-12T14:18:02.954Z,74.27
2022-10-12T14:20:03.998Z,74.57
2022-10-12T14:24:06.492Z,73.83
2022-10-12T14:26:07.521Z,74.57
2022-10-12T14:28:08.601Z,75.18
2022-10-12T14:30:10.031Z,72.58
2022-10-12T14:34:12.761Z,73.67
2022-10-12T14:36:14.505Z,74.03
2022-10-12T14:40:16.543Z,76.12
2022-10-12T14:42:17.721Z,76.59
2022-10-12T14:44:18.689Z,74.79
2022-10-12T14:46:20.235Z,74.96
2022-10-12T14:50:23.183Z,74.72
2022-10-12T14:52:24.815Z,76.32
2022-10-12T14:54:25.888Z,76.26
2022-10-12T14:56:27.353Z,75.83
2022-10-12T14:58:29.118Z,75.6
2022-10-12T15:00:30.369Z,75.57
2022-10-12T15:02:31.449Z,75.02
2022-10-12T15:04:33.118Z,72.92
2022-10-12T15:06:34.303Z,75.36
2022-10-12T15:08:35.882Z,74.35
2022-10-12T15:10:37.107Z,74.14
2022-10-12T15:12:38.313Z,74.07
2022-10-12T15:14:39.236Z,76.11
2022-10-12T15:16:40.626Z,75.27
2022-10-12T15:18:41.846Z,75.3
2022-10-12T15:20:46.854Z,75.47
2022-10-12T15:22:44.343Z,77.75
2022-10-12T15:24:45.715Z,79.31
2022-10-12T15:26:46.618Z,78.64
2022-10-12T15:28:47.856Z,77.65
2022-10-12T15:32:50.349Z,77.67
2022-10-12T15:34:52.094Z,79.49
2022-10-12T15:36:53.595Z,81.24
2022-10-12T15:38:55.339Z,79.49
2022-10-12T15:40:57.071Z,82.71
2022-10-12T15:42:57.912Z,81.41
2022-10-12T15:44:59.681Z,85.6
2022-10-12T15:47:01.220Z,85.25
2022-10-12T15:49:02.941Z,86.05
2022-10-12T15:51:04.224Z,83.99
2022-10-12T15:53:06.720Z,83.72
2022-10-12T15:55:06.864Z,84.11
2022-10-12T15:57:07.724Z,85.58
2022-10-12T15:59:08.771Z,87.76
2022-10-12T16:01:10.470Z,85.35
2022-10-12T16:03:12.242Z,84.56
2022-10-12T16:05:13.183Z,84.6
2022-10-12T16:07:14.727Z,84.89
2022-10-12T16:09:16.200Z,85.34
2022-10-12T16:11:17.624Z,85.53
2022-10-12T16:15:19.938Z,85.97
2022-10-12T16:17:21.150Z,86.28
2022-10-12T16:19:22.706Z,86.78
2022-10-12T16:21:23.987Z,86.87
2022-10-12T16:23:24.969Z,87.15
2022-10-12T16:25:26.759Z,87.51
2022-10-12T16:27:28.085Z,88.09
2022-10-12T16:29:29.824Z,88.34
2022-10-12T16:31:31.427Z,88.63
2022-10-12T16:33:32.660Z,88.97
2022-10-12T16:35:34.375Z,89.35
2022-10-12T16:37:35.955Z,89.75
2022-10-12T16:39:37.116Z,90.6
2022-10-12T16:41:38.045Z,91.16
2022-10-12T16:43:39.323Z,91.27
2022-10-12T16:45:40.229Z,91.52
2022-10-12T16:47:42.663Z,91.49
2022-10-12T16:49:42.411Z,91.67
2022-10-12T16:51:44.279Z,92.19
2022-10-12T16:52:28.077Z,92.31
2022-10-12T16:54:29.410Z,92.78
2022-10-12T16:56:31.962Z,93.09
2022-10-12T16:58:32.941Z,93.09
2022-10-12T17:00:34.518Z,93.39
2022-10-12T17:02:36.304Z,93.74
2022-10-12T17:04:38.144Z,93.82
2022-10-12T17:08:41.909Z,94.47
2022-10-12T17:10:43.424Z,94.56
2022-10-12T17:12:45.053Z,94.67
2022-10-12T17:14:46.368Z,94.88
2022-10-12T17:16:47.486Z,94.91
2022-10-12T17:18:48.652Z,95.06
2022-10-12T17:20:52.111Z,95.1
2022-10-12T17:22:51.115Z,95.05
2022-10-12T17:24:52.778Z,95.07
2022-10-12T17:26:54.476Z,95.14
2022-10-12T17:28:56.427Z,95.16
2022-10-12T17:30:57.982Z,95.19
2022-10-12T17:32:59.199Z,95.3
2022-10-12T17:35:00.235Z,95.09
2022-10-12T17:37:01.491Z,95.08
2022-10-12T17:39:02.656Z,95.15
2022-10-12T17:41:03.883Z,94.93
2022-10-12T17:43:04.991Z,94.99
2022-10-12T17:45:06.781Z,94.9
2022-10-12T17:47:07.877Z,95.1
2022-10-12T17:51:10.641Z,95.07
2022-10-12T17:53:11.872Z,95.26
2022-10-12T17:55:24.277Z,95.11
2022-10-12T17:57:14.402Z,95.28
2022-10-12T17:59:15.899Z,95.3
2022-10-12T18:01:17.156Z,95.22
2022-10-12T18:03:21.103Z,95.29
2022-10-12T18:05:19.856Z,95.47
2022-10-12T18:07:21.579Z,95.66
2022-10-12T18:09:23.219Z,95.77
2022-10-12T18:11:24.535Z,95.8
2022-10-12T18:13:25.755Z,95.98
2022-10-12T18:15:26.995Z,95.84
2022-10-12T18:17:28.348Z,95.68
2022-10-12T18:19:29.835Z,95.61
2022-10-12T18:23:32.991Z,95.65
2022-10-12T18:25:34.710Z,95.76
2022-10-12T18:27:36.452Z,95.92
2022-10-12T18:29:37.721Z,96.01
2022-10-12T18:33:40.690Z,96.21
2022-10-12T18:35:42.348Z,96.16
2022-10-12T18:37:43.952Z,96.12
2022-10-12T18:39:45.769Z,96.07
2022-10-12T18:41:47.565Z,96.12
2022-10-12T18:43:48.769Z,96.15
2022-10-12T18:45:50.606Z,96.19
2022-10-12T18:47:51.937Z,96.22
2022-10-12T18:49:53.218Z,96.26
2022-10-12T18:51:54.629Z,96.29
2022-10-12T18:53:56.393Z,96.34
2022-10-12T18:55:57.377Z,96.32
2022-10-12T18:57:58.739Z,96.2
2022-10-12T19:00:00.405Z,96.54
2022-10-12T19:02:02.203Z,96.67
2022-10-12T19:04:03.592Z,96.64
2022-10-12T19:06:04.684Z,96.76
2022-10-12T19:08:05.919Z,96.87
2022-10-12T19:10:07.058Z,96.89
2022-10-12T19:12:08.281Z,96.82
2022-10-12T19:14:09.472Z,96.95
2022-10-12T19:16:11.361Z,96.95
2022-10-12T19:18:12.345Z,96.92
2022-10-12T19:20:14.207Z,97.1
2022-10-12T19:22:15.803Z,97.23
2022-10-12T19:24:16.447Z,97.26
2022-10-12T19:26:17.481Z,97.26
2022-10-12T19:28:19.029Z,97.27
2022-10-12T19:32:21.876Z,97.32
2022-10-12T19:34:23.704Z,97.32
2022-10-12T19:36:24.505Z,97.31
2022-10-12T19:38:26.147Z,97.27
2022-10-12T19:40:27.804Z,97.32
2022-10-12T19:42:29.332Z,97.35
2022-10-12T19:44:31.262Z,97.38
2022-10-12T19:46:32.317Z,97.24
2022-10-12T19:48:34.108Z,97.23
2022-10-12T19:50:35.231Z,97.35
2022-10-12T19:52:36.450Z,97.4
2022-10-12T19:54:38.038Z,97.44
2022-10-12T19:56:39.584Z,97.51
2022-10-12T19:58:40.530Z,97.54
2022-10-12T20:00:42.199Z,97.6
2022-10-12T20:02:43.412Z,97.69
2022-10-12T20:04:44.383Z,97.69
2022-10-12T20:06:45.588Z,97.72
2022-10-12T20:08:47.407Z,97.79
2022-10-12T20:10:48.335Z,97.77
2022-10-12T20:14:52.056Z,97.85
2022-10-12T20:16:53.674Z,97.82
2022-10-12T20:18:55.314Z,97.89
2022-10-12T20:20:56.991Z,97.93
2022-10-12T20:22:58.322Z,97.9
2022-10-12T20:25:00.121Z,98.02
2022-10-12T20:27:01.735Z,98.1
2022-10-12T20:29:03.680Z,98.1
2022-10-12T20:31:05.540Z,98.11
2022-10-12T20:33:06.489Z,98.12
2022-10-12T20:35:08.049Z,98.1
2022-10-12T20:37:09.563Z,98.06
2022-10-12T20:39:10.978Z,97.99
2022-10-12T20:41:12.045Z,98.02
2022-10-12T20:43:13.388Z,98.02
2022-10-12T20:45:14.815Z,98.03
2022-10-12T20:47:16.156Z,98.29
2022-10-12T20:49:17.214Z,98.19
2022-10-12T20:51:18.819Z,97.88
2022-10-12T20:53:20.353Z,98.03
2022-10-12T20:57:22.988Z,98
2022-10-12T20:59:24.567Z,98.04
2022-10-12T21:01:25.605Z,98.05
2022-10-12T21:03:27.208Z,98.08
2022-10-12T21:05:28.388Z,98.13
2022-10-12T21:07:29.349Z,98.16
2022-10-12T21:09:30.318Z,98.15
2022-10-12T21:11:31.328Z,98.14
2022-10-12T21:13:33.329Z,98.26
2022-10-12T21:15:34.997Z,98.34
2022-10-12T21:17:36.326Z,98.33
2022-10-12T21:19:38.177Z,98.32
2022-10-12T21:21:39.456Z,98.36
2022-10-12T21:23:40.636Z,98.31
2022-10-12T21:25:41.914Z,98.35
2022-10-12T21:27:43.222Z,98.32
2022-10-12T21:29:44.271Z,98.35
2022-10-12T21:31:45.879Z,98.35
2022-10-12T21:33:47.700Z,98.43
2022-10-12T21:35:49.517Z,98.08
2022-10-12T21:37:51.328Z,98.22
2022-10-12T21:39:54.321Z,98.28
2022-10-12T21:41:54.554Z,98.32
2022-10-12T21:43:55.682Z,98.57
2022-10-12T21:45:56.906Z,98.6
2022-10-12T21:47:58.263Z,98.62
2022-10-12T21:49:59.559Z,98.63
2022-10-12T21:52:01.271Z,98.63
2022-10-12T21:56:04.901Z,98.59
2022-10-12T21:58:06.712Z,98.63
2022-10-12T22:00:08.432Z,98.64
2022-10-12T22:02:09.565Z,98.59
2022-10-12T22:04:10.721Z,98.46
2022-10-12T22:06:11.923Z,98.48
2022-10-12T22:08:13.635Z,98.57
2022-10-12T22:10:15.042Z,98.6
2022-10-12T22:12:16.855Z,98.72
2022-10-12T22:14:17.709Z,98.72
2022-10-12T22:16:19.268Z,98.74
2022-10-12T22:18:20.396Z,98.73
2022-10-12T22:20:22.127Z,98.78
2022-10-12T22:22:23.049Z,98.81
2022-10-12T22:24:24.192Z,98.76
2022-10-12T22:26:25.886Z,98.8
2022-10-12T22:28:27.819Z,98.8
2022-10-12T22:30:29.288Z,98.85
2022-10-12T22:32:31.255Z,98.88
2022-10-12T22:34:32.674Z,98.86
2022-10-12T22:36:33.844Z,98.92
2022-10-12T22:38:35.488Z,98.91
2022-10-12T22:40:37.008Z,98.9
2022-10-12T22:42:38.793Z,98.85
2022-10-12T22:44:40.538Z,98.84
2022-10-12T22:46:41.854Z,98.83
2022-10-12T22:48:43.776Z,98.82
2022-10-12T22:50:44.895Z,98.85
2022-10-12T22:52:46.748Z,98.82
2022-10-12T22:54:48.542Z,98.87
2022-10-12T22:56:50.390Z,98.87
2022-10-12T23:00:53.653Z,98.97
2022-10-12T23:02:55.363Z,98.91
2022-10-12T23:04:56.795Z,98.87
2022-10-12T23:06:57.800Z,98.88
2022-10-12T23:11:01.103Z,99.03
2022-10-12T23:13:02.645Z,99.05
2022-10-12T23:15:04.532Z,99.04
2022-10-12T23:17:05.961Z,99
2022-10-12T23:19:07.502Z,98.89
2022-10-12T23:21:09.218Z,98.84
2022-10-12T23:23:10.655Z,98.83
2022-10-12T23:25:11.712Z,98.93
2022-10-12T23:27:13.208Z,98.95
2022-10-12T23:29:14.434Z,98.96
2022-10-12T23:31:15.582Z,99
2022-10-12T23:33:17.482Z,99
2022-10-12T23:35:19.179Z,98.98
2022-10-12T23:37:20.733Z,98.98
2022-10-12T23:38:04.645Z,98.96
2022-10-12T23:40:06.322Z,98.91
2022-10-12T23:42:08.032Z,98.93
2022-10-12T23:44:09.135Z,99.05
2022-10-12T23:48:12.021Z,99.13
2022-10-12T23:50:13.911Z,99.13
2022-10-12T23:52:16.047Z,99.1
2022-10-12T23:54:16.919Z,99.09
2022-10-12T23:56:18.138Z,99.03
2022-10-12T23:58:19.259Z,99.01
